sensor_id;sensor_type;location;lat;lon;timestamp;temperature;humidity
46590;DHT22;32313;48.722;9.362;2022-10-31T00:02:21;7.40;99.90
46590;DHT22;32313;48.722;9.362;2022-10-31T00:04:47;7.40;99.90
46590;DHT22;32313;48.722;9.362;2022-10-31T00:07:13;7.40;99.90
46590;DHT22;32313;48.722;9.362;2022-10-31T00:09:38;7.40;99.90
46590;DHT22;32313;48.722;9.362;2022-10-31T00:12:04;7.40;99.90
46590;DHT22;32313;48.722;9.362;2022-10-31T00:14:30;7.30;99.90
46590;DHT22;32313;48.722;9.362;2022-10-31T00:16:55;7.30;99.90
46590;DHT22;32313;48.722;9.362;2022-10-31T00:19:21;7.30;99.90
46590;DHT22;32313;48.722;9.362;2022-10-31T00:21:47;7.30;99.90
46590;DHT22;32313;48.722;9.362;2022-10-31T00:24:12;7.20;99.90
46590;DHT22;32313;48.722;9.362;2022-10-31T00:26:38;7.20;99.90
46590;DHT22;32313;48.722;9.362;2022-10-31T00:29:04;7.10;99.90
46590;DHT22;32313;48.722;9.362;2022-10-31T00:31:29;7.10;99.90
46590;DHT22;32313;48.722;9.362;2022-10-31T00:33:56;7.10;99.90
46590;DHT22;32313;48.722;9.362;2022-10-31T00:36:25;7.10;99.90
46590;DHT22;32313;48.722;9.362;2022-10-31T00:38:51;7.10;99.90
46590;DHT22;32313;48.722;9.362;2022-10-31T00:41:17;7.10;99.90
46590;DHT22;32313;48.722;9.362;2022-10-31T00:43:43;7.10;99.90
46590;DHT22;32313;48.722;9.362;2022-10-31T00:46:10;7.10;99.90
46590;DHT22;32313;48.722;9.362;2022-10-31T00:48:35;7.10;99.90
46590;DHT22;32313;48.722;9.362;2022-10-31T00:51:01;7.10;99.90
46590;DHT22;32313;48.722;9.362;2022-10-31T00:53:27;7.10;99.90
46590;DHT22;32313;48.722;9.362;2022-10-31T00:55:53;7.10;99.90
46590;DHT22;32313;48.722;9.362;2022-10-31T00:58:18;7.10;99.90
46590;DHT22;32313;48.722;9.362;2022-10-31T01:00:47;7.10;99.90
46590;DHT22;32313;48.722;9.362;2022-10-31T01:03:24;7.10;99.90
46590;DHT22;32313;48.722;9.362;2022-10-31T01:06:11;7.10;99.90
46590;DHT22;32313;48.722;9.362;2022-10-31T01:08:37;7.00;99.90
46590;DHT22;32313;48.722;9.362;2022-10-31T01:11:21;7.00;99.90
46590;DHT22;32313;48.722;9.362;2022-10-31T01:13:49;7.00;99.90
46590;DHT22;32313;48.722;9.362;2022-10-31T01:16:17;6.90;99.90
46590;DHT22;32313;48.722;9.362;2022-10-31T01:18:43;6.90;99.90
46590;DHT22;32313;48.722;9.362;2022-10-31T01:21:18;7.00;99.90
46590;DHT22;32313;48.722;9.362;2022-10-31T01:23:44;6.90;99.90
46590;DHT22;32313;48.722;9.362;2022-10-31T01:26:18;7.00;99.90
46590;DHT22;32313;48.722;9.362;2022-10-31T01:31:19;6.90;99.90
46590;DHT22;32313;48.722;9.362;2022-10-31T01:33:45;6.90;99.90
46590;DHT22;32313;48.722;9.362;2022-10-31T01:36:14;6.90;99.90
46590;DHT22;32313;48.722;9.362;2022-10-31T01:38:41;6.80;99.90
46590;DHT22;32313;48.722;9.362;2022-10-31T01:41:08;6.80;99.90
46590;DHT22;32313;48.722;9.362;2022-10-31T01:43:44;6.80;99.90
46590;DHT22;32313;48.722;9.362;2022-10-31T01:46:10;6.80;99.90
46590;DHT22;32313;48.722;9.362;2022-10-31T01:48:36;6.80;99.90
46590;DHT22;32313;48.722;9.362;2022-10-31T01:51:03;6.80;99.90
46590;DHT22;32313;48.722;9.362;2022-10-31T01:53:31;6.80;99.90
46590;DHT22;32313;48.722;9.362;2022-10-31T01:55:58;6.70;99.90
46590;DHT22;32313;48.722;9.362;2022-10-31T01:58:25;6.80;99.90
46590;DHT22;32313;48.722;9.362;2022-10-31T02:00:56;6.70;99.90
46590;DHT22;32313;48.722;9.362;2022-10-31T02:03:24;6.60;99.90
46590;DHT22;32313;48.722;9.362;2022-10-31T02:05:51;6.60;99.90
46590;DHT22;32313;48.722;9.362;2022-10-31T02:08:32;6.70;99.90
46590;DHT22;32313;48.722;9.362;2022-10-31T02:11:00;6.70;99.90
46590;DHT22;32313;48.722;9.362;2022-10-31T02:13:28;6.70;99.90
46590;DHT22;32313;48.722;9.362;2022-10-31T02:15:58;6.70;99.90
46590;DHT22;32313;48.722;9.362;2022-10-31T02:18:26;6.70;99.90
46590;DHT22;32313;48.722;9.362;2022-10-31T02:29:05;6.70;99.90
46590;DHT22;32313;48.722;9.362;2022-10-31T02:32:00;6.70;99.90
46590;DHT22;32313;48.722;9.362;2022-10-31T02:34:33;6.60;99.90
46590;DHT22;32313;48.722;9.362;2022-10-31T02:37:14;6.60;99.90
46590;DHT22;32313;48.722;9.362;2022-10-31T02:45:30;6.60;99.90
46590;DHT22;32313;48.722;9.362;2022-10-31T02:48:02;6.50;99.90
46590;DHT22;32313;48.722;9.362;2022-10-31T02:50:34;6.50;99.90
46590;DHT22;32313;48.722;9.362;2022-10-31T02:53:03;6.50;99.90
46590;DHT22;32313;48.722;9.362;2022-10-31T02:58:01;6.50;99.90
46590;DHT22;32313;48.722;9.362;2022-10-31T03:00:30;6.40;99.90
46590;DHT22;32313;48.722;9.362;2022-10-31T03:03:19;6.50;99.90
46590;DHT22;32313;48.722;9.362;2022-10-31T03:06:02;6.40;99.90
46590;DHT22;32313;48.722;9.362;2022-10-31T03:11:41;6.40;99.90
46590;DHT22;32313;48.722;9.362;2022-10-31T03:14:18;6.40;99.90
46590;DHT22;32313;48.722;9.362;2022-10-31T03:16:51;6.40;99.90
46590;DHT22;32313;48.722;9.362;2022-10-31T03:19:25;6.40;99.90
46590;DHT22;32313;48.722;9.362;2022-10-31T03:22:00;6.40;99.90
46590;DHT22;32313;48.722;9.362;2022-10-31T03:24:30;6.30;99.90
46590;DHT22;32313;48.722;9.362;2022-10-31T03:26:59;6.30;99.90
46590;DHT22;32313;48.722;9.362;2022-10-31T03:29:30;6.20;99.90
46590;DHT22;32313;48.722;9.362;2022-10-31T03:32:01;6.20;99.90
46590;DHT22;32313;48.722;9.362;2022-10-31T03:34:30;6.20;99.90
46590;DHT22;32313;48.722;9.362;2022-10-31T03:37:00;6.10;99.90
46590;DHT22;32313;48.722;9.362;2022-10-31T03:39:28;6.10;99.90
46590;DHT22;32313;48.722;9.362;2022-10-31T03:42:02;6.10;99.90
46590;DHT22;32313;48.722;9.362;2022-10-31T03:44:32;6.10;99.90
46590;DHT22;32313;48.722;9.362;2022-10-31T03:47:02;6.10;99.90
46590;DHT22;32313;48.722;9.362;2022-10-31T03:49:29;6.00;99.90
46590;DHT22;32313;48.722;9.362;2022-10-31T03:54:49;6.00;99.90
46590;DHT22;32313;48.722;9.362;2022-10-31T03:57:25;6.00;99.90
46590;DHT22;32313;48.722;9.362;2022-10-31T04:00:03;6.00;99.90
46590;DHT22;32313;48.722;9.362;2022-10-31T04:02:33;6.00;99.90
46590;DHT22;32313;48.722;9.362;2022-10-31T04:05:00;6.00;99.90
46590;DHT22;32313;48.722;9.362;2022-10-31T04:07:33;5.90;99.90
46590;DHT22;32313;48.722;9.362;2022-10-31T04:10:09;5.90;99.90
46590;DHT22;32313;48.722;9.362;2022-10-31T04:12:36;5.90;99.90
46590;DHT22;32313;48.722;9.362;2022-10-31T04:15:24;5.90;99.90
46590;DHT22;32313;48.722;9.362;2022-10-31T04:17:52;5.90;99.90
46590;DHT22;32313;48.722;9.362;2022-10-31T04:20:28;5.90;99.90
46590;DHT22;32313;48.722;9.362;2022-10-31T04:22:54;5.90;99.90
46590;DHT22;32313;48.722;9.362;2022-10-31T04:25:20;5.90;99.90
46590;DHT22;32313;48.722;9.362;2022-10-31T04:27:45;5.90;99.90
46590;DHT22;32313;48.722;9.362;2022-10-31T04:30:11;6.00;99.90
46590;DHT22;32313;48.722;9.362;2022-10-31T04:32:39;6.00;99.90
46590;DHT22;32313;48.722;9.362;2022-10-31T04:35:06;5.90;99.90
46590;DHT22;32313;48.722;9.362;2022-10-31T04:37:32;5.90;99.90
46590;DHT22;32313;48.722;9.362;2022-10-31T04:39:58;5.80;99.90
46590;DHT22;32313;48.722;9.362;2022-10-31T04:42:39;5.80;99.90
46590;DHT22;32313;48.722;9.362;2022-10-31T04:45:06;5.80;99.90
46590;DHT22;32313;48.722;9.362;2022-10-31T04:47:33;5.80;99.90
46590;DHT22;32313;48.722;9.362;2022-10-31T04:50:01;5.70;99.90
46590;DHT22;32313;48.722;9.362;2022-10-31T04:52:27;5.70;99.90
46590;DHT22;32313;48.722;9.362;2022-10-31T04:54:53;5.70;99.90
46590;DHT22;32313;48.722;9.362;2022-10-31T04:57:50;5.60;99.90
46590;DHT22;32313;48.722;9.362;2022-10-31T05:00:19;5.50;99.90
46590;DHT22;32313;48.722;9.362;2022-10-31T05:02:53;5.50;99.90
46590;DHT22;32313;48.722;9.362;2022-10-31T05:05:25;5.40;99.90
46590;DHT22;32313;48.722;9.362;2022-10-31T05:07:52;5.40;99.90
46590;DHT22;32313;48.722;9.362;2022-10-31T05:10:26;5.50;99.90
46590;DHT22;32313;48.722;9.362;2022-10-31T05:12:58;5.50;99.90
46590;DHT22;32313;48.722;9.362;2022-10-31T05:15:44;5.50;99.90
46590;DHT22;32313;48.722;9.362;2022-10-31T05:18:35;5.50;99.90
46590;DHT22;32313;48.722;9.362;2022-10-31T05:21:19;5.50;99.90
46590;DHT22;32313;48.722;9.362;2022-10-31T05:23:51;5.50;99.90
46590;DHT22;32313;48.722;9.362;2022-10-31T05:26:19;5.40;99.90
46590;DHT22;32313;48.722;9.362;2022-10-31T05:28:46;5.30;99.90
46590;DHT22;32313;48.722;9.362;2022-10-31T05:31:11;5.30;99.90
46590;DHT22;32313;48.722;9.362;2022-10-31T05:33:37;5.40;99.90
46590;DHT22;32313;48.722;9.362;2022-10-31T05:36:21;5.40;99.90
46590;DHT22;32313;48.722;9.362;2022-10-31T05:38:53;5.40;99.90
46590;DHT22;32313;48.722;9.362;2022-10-31T05:41:28;5.30;99.90
46590;DHT22;32313;48.722;9.362;2022-10-31T05:44:04;5.30;99.90
46590;DHT22;32313;48.722;9.362;2022-10-31T05:46:33;5.20;99.90
46590;DHT22;32313;48.722;9.362;2022-10-31T05:49:37;5.10;99.90
46590;DHT22;32313;48.722;9.362;2022-10-31T05:52:21;5.20;99.90
46590;DHT22;32313;48.722;9.362;2022-10-31T05:54:54;5.10;99.90
46590;DHT22;32313;48.722;9.362;2022-10-31T05:57:20;5.20;99.90
46590;DHT22;32313;48.722;9.362;2022-10-31T05:59:46;5.20;99.90
46590;DHT22;32313;48.722;9.362;2022-10-31T06:02:11;5.20;99.90
46590;DHT22;32313;48.722;9.362;2022-10-31T06:04:55;5.10;99.90
46590;DHT22;32313;48.722;9.362;2022-10-31T06:07:21;5.10;99.90
46590;DHT22;32313;48.722;9.362;2022-10-31T06:09:47;5.10;99.90
46590;DHT22;32313;48.722;9.362;2022-10-31T06:12:14;5.10;99.90
46590;DHT22;32313;48.722;9.362;2022-10-31T06:15:04;5.20;99.90
46590;DHT22;32313;48.722;9.362;2022-10-31T06:17:31;5.30;99.90
46590;DHT22;32313;48.722;9.362;2022-10-31T06:20:00;5.20;99.90
46590;DHT22;32313;48.722;9.362;2022-10-31T06:22:28;5.30;99.90
46590;DHT22;32313;48.722;9.362;2022-10-31T06:24:54;5.30;99.90
46590;DHT22;32313;48.722;9.362;2022-10-31T06:27:26;5.30;99.90
46590;DHT22;32313;48.722;9.362;2022-10-31T06:29:52;5.40;99.90
46590;DHT22;32313;48.722;9.362;2022-10-31T06:32:36;5.50;99.90
46590;DHT22;32313;48.722;9.362;2022-10-31T06:35:02;5.50;99.90
46590;DHT22;32313;48.722;9.362;2022-10-31T06:37:28;5.50;99.90
46590;DHT22;32313;48.722;9.362;2022-10-31T06:40:00;5.50;99.90
46590;DHT22;32313;48.722;9.362;2022-10-31T06:42:26;5.50;99.90
46590;DHT22;32313;48.722;9.362;2022-10-31T06:44:51;5.60;99.90
46590;DHT22;32313;48.722;9.362;2022-10-31T06:47:40;5.70;99.90
46590;DHT22;32313;48.722;9.362;2022-10-31T06:50:09;5.70;99.90
46590;DHT22;32313;48.722;9.362;2022-10-31T06:52:35;5.80;99.90
46590;DHT22;32313;48.722;9.362;2022-10-31T06:55:03;5.90;99.90
46590;DHT22;32313;48.722;9.362;2022-10-31T06:57:30;6.00;99.90
46590;DHT22;32313;48.722;9.362;2022-10-31T06:59:56;6.10;99.90
46590;DHT22;32313;48.722;9.362;2022-10-31T07:02:41;6.20;99.90
46590;DHT22;32313;48.722;9.362;2022-10-31T07:05:07;6.50;99.90
46590;DHT22;32313;48.722;9.362;2022-10-31T07:07:32;6.80;99.90
46590;DHT22;32313;48.722;9.362;2022-10-31T07:09:58;6.90;99.90
46590;DHT22;32313;48.722;9.362;2022-10-31T07:12:41;6.90;99.90
46590;DHT22;32313;48.722;9.362;2022-10-31T07:15:08;6.90;99.90
46590;DHT22;32313;48.722;9.362;2022-10-31T07:17:36;6.90;99.90
46590;DHT22;32313;48.722;9.362;2022-10-31T07:20:03;6.90;99.90
46590;DHT22;32313;48.722;9.362;2022-10-31T07:22:34;7.00;99.90
46590;DHT22;32313;48.722;9.362;2022-10-31T07:25:00;7.10;99.90
46590;DHT22;32313;48.722;9.362;2022-10-31T07:27:44;7.20;99.90
46590;DHT22;32313;48.722;9.362;2022-10-31T07:30:12;7.30;99.90
46590;DHT22;32313;48.722;9.362;2022-10-31T07:32:43;7.30;99.90
46590;DHT22;32313;48.722;9.362;2022-10-31T07:35:17;7.40;99.90
46590;DHT22;32313;48.722;9.362;2022-10-31T07:37:49;7.50;99.90
46590;DHT22;32313;48.722;9.362;2022-10-31T07:40:16;7.60;99.90
46590;DHT22;32313;48.722;9.362;2022-10-31T07:42:45;7.70;99.90
46590;DHT22;32313;48.722;9.362;2022-10-31T07:45:31;7.70;99.90
46590;DHT22;32313;48.722;9.362;2022-10-31T07:48:17;7.80;99.90
46590;DHT22;32313;48.722;9.362;2022-10-31T07:51:03;7.90;99.90
46590;DHT22;32313;48.722;9.362;2022-10-31T07:53:47;8.00;99.90
46590;DHT22;32313;48.722;9.362;2022-10-31T07:56:21;8.10;99.90
46590;DHT22;32313;48.722;9.362;2022-10-31T07:58:47;8.20;99.90
46590;DHT22;32313;48.722;9.362;2022-10-31T08:01:13;8.30;99.90
46590;DHT22;32313;48.722;9.362;2022-10-31T08:03:47;8.40;99.90
46590;DHT22;32313;48.722;9.362;2022-10-31T08:06:51;8.60;99.90
46590;DHT22;32313;48.722;9.362;2022-10-31T08:09:27;8.80;99.90
46590;DHT22;32313;48.722;9.362;2022-10-31T08:11:57;9.00;99.90
46590;DHT22;32313;48.722;9.362;2022-10-31T08:14:24;9.30;99.90
46590;DHT22;32313;48.722;9.362;2022-10-31T08:16:52;9.40;99.90
46590;DHT22;32313;48.722;9.362;2022-10-31T08:19:18;9.50;99.90
46590;DHT22;32313;48.722;9.362;2022-10-31T08:21:44;9.70;99.90
46590;DHT22;32313;48.722;9.362;2022-10-31T08:24:10;9.90;99.90
46590;DHT22;32313;48.722;9.362;2022-10-31T08:26:37;10.00;99.90
46590;DHT22;32313;48.722;9.362;2022-10-31T08:29:06;10.00;99.90
46590;DHT22;32313;48.722;9.362;2022-10-31T08:31:34;10.10;99.90
46590;DHT22;32313;48.722;9.362;2022-10-31T08:34:18;10.20;99.90
46590;DHT22;32313;48.722;9.362;2022-10-31T08:37:02;10.30;99.90
46590;DHT22;32313;48.722;9.362;2022-10-31T08:39:36;10.70;99.90
46590;DHT22;32313;48.722;9.362;2022-10-31T08:42:01;11.00;99.90
46590;DHT22;32313;48.722;9.362;2022-10-31T08:44:28;11.30;99.90
46590;DHT22;32313;48.722;9.362;2022-10-31T08:46:53;11.60;99.90
46590;DHT22;32313;48.722;9.362;2022-10-31T08:49:21;11.80;99.90
46590;DHT22;32313;48.722;9.362;2022-10-31T08:51:48;11.80;99.90
46590;DHT22;32313;48.722;9.362;2022-10-31T08:54:14;11.80;99.90
46590;DHT22;32313;48.722;9.362;2022-10-31T08:56:53;12.10;99.90
46590;DHT22;32313;48.722;9.362;2022-10-31T08:59:40;12.20;99.90
46590;DHT22;32313;48.722;9.362;2022-10-31T09:02:24;12.50;99.90
46590;DHT22;32313;48.722;9.362;2022-10-31T09:04:55;12.50;99.90
46590;DHT22;32313;48.722;9.362;2022-10-31T09:07:21;12.70;99.90
46590;DHT22;32313;48.722;9.362;2022-10-31T09:09:47;12.90;99.90
46590;DHT22;32313;48.722;9.362;2022-10-31T09:12:12;13.10;99.90
46590;DHT22;32313;48.722;9.362;2022-10-31T09:15:04;13.40;99.90
46590;DHT22;32313;48.722;9.362;2022-10-31T09:17:47;13.50;99.90
46590;DHT22;32313;48.722;9.362;2022-10-31T09:20:43;13.60;99.90
46590;DHT22;32313;48.722;9.362;2022-10-31T09:23:21;13.80;99.90
46590;DHT22;32313;48.722;9.362;2022-10-31T09:25:49;13.80;99.90
46590;DHT22;32313;48.722;9.362;2022-10-31T09:28:31;14.00;99.90
46590;DHT22;32313;48.722;9.362;2022-10-31T09:31:03;14.20;99.90
46590;DHT22;32313;48.722;9.362;2022-10-31T09:33:49;14.20;99.90
46590;DHT22;32313;48.722;9.362;2022-10-31T09:36:40;14.40;99.90
46590;DHT22;32313;48.722;9.362;2022-10-31T09:39:26;14.50;99.90
46590;DHT22;32313;48.722;9.362;2022-10-31T09:53:45;15.30;99.90
46590;DHT22;32313;48.722;9.362;2022-10-31T09:56:19;15.40;99.90
46590;DHT22;32313;48.722;9.362;2022-10-31T09:58:57;15.40;99.90
46590;DHT22;32313;48.722;9.362;2022-10-31T10:16:05;16.40;99.90
46590;DHT22;32313;48.722;9.362;2022-10-31T10:27:08;17.60;99.90
46590;DHT22;32313;48.722;9.362;2022-10-31T10:29:49;18.00;99.90
46590;DHT22;32313;48.722;9.362;2022-10-31T10:32:25;18.00;99.90
46590;DHT22;32313;48.722;9.362;2022-10-31T10:35:10;18.10;99.90
46590;DHT22;32313;48.722;9.362;2022-10-31T10:37:41;18.20;99.90
46590;DHT22;32313;48.722;9.362;2022-10-31T10:40:15;18.50;99.90
46590;DHT22;32313;48.722;9.362;2022-10-31T10:42:45;18.70;99.90
46590;DHT22;32313;48.722;9.362;2022-10-31T10:45:34;18.40;99.90
46590;DHT22;32313;48.722;9.362;2022-10-31T10:50:52;18.20;99.90
46590;DHT22;32313;48.722;9.362;2022-10-31T10:53:39;17.80;99.90
46590;DHT22;32313;48.722;9.362;2022-10-31T10:56:44;17.50;99.90
46590;DHT22;32313;48.722;9.362;2022-10-31T10:59:15;17.30;99.90
46590;DHT22;32313;48.722;9.362;2022-10-31T11:01:42;17.10;99.90
46590;DHT22;32313;48.722;9.362;2022-10-31T11:04:25;17.00;99.90
46590;DHT22;32313;48.722;9.362;2022-10-31T11:07:03;16.80;99.90
46590;DHT22;32313;48.722;9.362;2022-10-31T11:09:30;16.50;99.90
46590;DHT22;32313;48.722;9.362;2022-10-31T11:11:56;16.50;99.90
46590;DHT22;32313;48.722;9.362;2022-10-31T11:14:24;16.50;99.90
46590;DHT22;32313;48.722;9.362;2022-10-31T11:17:06;16.50;99.90
46590;DHT22;32313;48.722;9.362;2022-10-31T11:19:34;16.60;99.90
46590;DHT22;32313;48.722;9.362;2022-10-31T11:22:15;16.90;99.90
46590;DHT22;32313;48.722;9.362;2022-10-31T11:24:42;17.30;99.90
46590;DHT22;32313;48.722;9.362;2022-10-31T11:27:16;17.80;99.90
46590;DHT22;32313;48.722;9.362;2022-10-31T11:29:45;18.10;99.90
46590;DHT22;32313;48.722;9.362;2022-10-31T11:32:23;18.60;99.90
46590;DHT22;32313;48.722;9.362;2022-10-31T11:34:53;18.80;99.90
46590;DHT22;32313;48.722;9.362;2022-10-31T11:37:25;18.80;99.90
46590;DHT22;32313;48.722;9.362;2022-10-31T11:39:57;18.60;99.90
46590;DHT22;32313;48.722;9.362;2022-10-31T11:42:27;18.50;99.90
46590;DHT22;32313;48.722;9.362;2022-10-31T11:44:54;18.50;99.90
46590;DHT22;32313;48.722;9.362;2022-10-31T11:47:28;18.70;99.90
46590;DHT22;32313;48.722;9.362;2022-10-31T11:49:56;19.10;99.90
46590;DHT22;32313;48.722;9.362;2022-10-31T11:52:26;19.30;99.90
46590;DHT22;32313;48.722;9.362;2022-10-31T11:54:57;19.40;99.90
46590;DHT22;32313;48.722;9.362;2022-10-31T11:57:31;19.50;99.90
46590;DHT22;32313;48.722;9.362;2022-10-31T12:00:00;19.70;99.90
46590;DHT22;32313;48.722;9.362;2022-10-31T12:02:26;19.80;99.90
46590;DHT22;32313;48.722;9.362;2022-10-31T12:05:16;19.80;99.90
46590;DHT22;32313;48.722;9.362;2022-10-31T12:08:09;19.60;99.90
46590;DHT22;32313;48.722;9.362;2022-10-31T12:16:18;19.40;99.90
46590;DHT22;32313;48.722;9.362;2022-10-31T12:19:03;19.60;99.90
46590;DHT22;32313;48.722;9.362;2022-10-31T12:30:40;18.60;99.90
46590;DHT22;32313;48.722;9.362;2022-10-31T12:41:47;17.50;99.90
46590;DHT22;32313;48.722;9.362;2022-10-31T12:49:50;17.40;99.90
46590;DHT22;32313;48.722;9.362;2022-10-31T12:59:04;17.20;99.90
46590;DHT22;32313;48.722;9.362;2022-10-31T13:01:46;17.30;99.90
46590;DHT22;32313;48.722;9.362;2022-10-31T13:07:15;17.20;99.90
46590;DHT22;32313;48.722;9.362;2022-10-31T13:12:29;17.10;99.90
46590;DHT22;32313;48.722;9.362;2022-10-31T13:14:58;17.10;99.90
46590;DHT22;32313;48.722;9.362;2022-10-31T13:17:30;17.10;99.90
46590;DHT22;32313;48.722;9.362;2022-10-31T13:22:42;17.00;99.90
46590;DHT22;32313;48.722;9.362;2022-10-31T13:27:54;17.00;99.90
46590;DHT22;32313;48.722;9.362;2022-10-31T13:30:26;17.00;99.90
46590;DHT22;32313;48.722;9.362;2022-10-31T13:33:16;16.90;99.90
46590;DHT22;32313;48.722;9.362;2022-10-31T13:41:04;17.10;99.90
46590;DHT22;32313;48.722;9.362;2022-10-31T13:44:34;17.20;99.90
46590;DHT22;32313;48.722;9.362;2022-10-31T13:46:41;17.40;99.90
46590;DHT22;32313;48.722;9.362;2022-10-31T13:51:52;17.80;99.90
46590;DHT22;32313;48.722;9.362;2022-10-31T13:54:31;18.40;99.90
46590;DHT22;32313;48.722;9.362;2022-10-31T13:56:57;19.10;99.90
46590;DHT22;32313;48.722;9.362;2022-10-31T13:59:25;19.50;99.90
46590;DHT22;32313;48.722;9.362;2022-10-31T14:01:57;19.70;99.90
46590;DHT22;32313;48.722;9.362;2022-10-31T14:04:37;19.60;99.90
46590;DHT22;32313;48.722;9.362;2022-10-31T14:07:10;19.50;99.90
46590;DHT22;32313;48.722;9.362;2022-10-31T14:10:00;19.30;99.90
46590;DHT22;32313;48.722;9.362;2022-10-31T14:12:41;19.20;99.90
46590;DHT22;32313;48.722;9.362;2022-10-31T14:15:27;19.10;99.90
46590;DHT22;32313;48.722;9.362;2022-10-31T14:18:02;18.80;99.90
46590;DHT22;32313;48.722;9.362;2022-10-31T14:20:38;18.80;99.90
46590;DHT22;32313;48.722;9.362;2022-10-31T14:31:42;19.80;99.90
46590;DHT22;32313;48.722;9.362;2022-10-31T14:39:25;18.80;99.90
46590;DHT22;32313;48.722;9.362;2022-10-31T14:50:23;17.80;99.90
46590;DHT22;32313;48.722;9.362;2022-10-31T14:52:53;17.50;99.90
46590;DHT22;32313;48.722;9.362;2022-10-31T14:55:20;17.10;99.90
46590;DHT22;32313;48.722;9.362;2022-10-31T14:58:01;16.70;99.90
46590;DHT22;32313;48.722;9.362;2022-10-31T15:00:31;16.40;99.90
46590;DHT22;32313;48.722;9.362;2022-10-31T15:05:42;15.80;99.90
46590;DHT22;32313;48.722;9.362;2022-10-31T15:08:30;15.50;99.90
46590;DHT22;32313;48.722;9.362;2022-10-31T15:10:56;15.30;99.90
46590;DHT22;32313;48.722;9.362;2022-10-31T15:13:22;15.20;99.90
46590;DHT22;32313;48.722;9.362;2022-10-31T15:15:49;15.10;99.90
46590;DHT22;32313;48.722;9.362;2022-10-31T15:18:21;14.90;99.90
46590;DHT22;32313;48.722;9.362;2022-10-31T15:20:48;14.70;99.90
46590;DHT22;32313;48.722;9.362;2022-10-31T15:23:29;14.60;99.90
46590;DHT22;32313;48.722;9.362;2022-10-31T15:26:03;14.50;99.90
46590;DHT22;32313;48.722;9.362;2022-10-31T15:28:30;14.40;99.90
46590;DHT22;32313;48.722;9.362;2022-10-31T15:30:59;14.20;99.90
46590;DHT22;32313;48.722;9.362;2022-10-31T15:33:27;14.10;99.90
46590;DHT22;32313;48.722;9.362;2022-10-31T15:35:58;14.00;99.90
46590;DHT22;32313;48.722;9.362;2022-10-31T15:38:25;13.90;99.90
46590;DHT22;32313;48.722;9.362;2022-10-31T15:43:24;13.60;99.90
46590;DHT22;32313;48.722;9.362;2022-10-31T15:45:50;13.50;99.90
46590;DHT22;32313;48.722;9.362;2022-10-31T15:48:23;13.30;99.90
46590;DHT22;32313;48.722;9.362;2022-10-31T15:50:56;13.10;99.90
46590;DHT22;32313;48.722;9.362;2022-10-31T15:53:33;12.90;99.90
46590;DHT22;32313;48.722;9.362;2022-10-31T15:56:03;12.70;99.90
46590;DHT22;32313;48.722;9.362;2022-10-31T15:58:30;12.60;99.90
46590;DHT22;32313;48.722;9.362;2022-10-31T16:01:06;12.50;99.90
46590;DHT22;32313;48.722;9.362;2022-10-31T16:03:33;12.30;99.90
46590;DHT22;32313;48.722;9.362;2022-10-31T16:06:01;12.20;99.90
46590;DHT22;32313;48.722;9.362;2022-10-31T16:13:40;11.80;99.90
46590;DHT22;32313;48.722;9.362;2022-10-31T16:16:15;11.70;99.90
46590;DHT22;32313;48.722;9.362;2022-10-31T16:18:42;11.70;99.90
46590;DHT22;32313;48.722;9.362;2022-10-31T16:21:09;11.60;99.90
46590;DHT22;32313;48.722;9.362;2022-10-31T16:23:38;11.50;99.90
46590;DHT22;32313;48.722;9.362;2022-10-31T16:26:06;11.40;99.90
46590;DHT22;32313;48.722;9.362;2022-10-31T16:28:32;11.20;99.90
46590;DHT22;32313;48.722;9.362;2022-10-31T16:30:59;11.20;99.90
46590;DHT22;32313;48.722;9.362;2022-10-31T16:33:35;11.10;99.90
46590;DHT22;32313;48.722;9.362;2022-10-31T16:36:44;11.10;99.90
46590;DHT22;32313;48.722;9.362;2022-10-31T16:39:10;11.00;99.90
46590;DHT22;32313;48.722;9.362;2022-10-31T16:41:41;10.90;99.90
46590;DHT22;32313;48.722;9.362;2022-10-31T16:44:26;10.80;99.90
46590;DHT22;32313;48.722;9.362;2022-10-31T16:47:15;10.80;99.90
46590;DHT22;32313;48.722;9.362;2022-10-31T16:49:42;10.80;99.90
46590;DHT22;32313;48.722;9.362;2022-10-31T16:52:09;10.70;99.90
46590;DHT22;32313;48.722;9.362;2022-10-31T16:54:34;10.70;99.90
46590;DHT22;32313;48.722;9.362;2022-10-31T16:57:03;10.60;99.90
46590;DHT22;32313;48.722;9.362;2022-10-31T16:59:29;10.50;99.90
46590;DHT22;32313;48.722;9.362;2022-10-31T17:01:55;10.40;99.90
46590;DHT22;32313;48.722;9.362;2022-10-31T17:04:21;10.30;99.90
46590;DHT22;32313;48.722;9.362;2022-10-31T17:06:47;10.20;99.90
46590;DHT22;32313;48.722;9.362;2022-10-31T17:09:12;10.20;99.90
46590;DHT22;32313;48.722;9.362;2022-10-31T17:11:45;10.10;99.90
46590;DHT22;32313;48.722;9.362;2022-10-31T17:14:11;10.00;99.90
46590;DHT22;32313;48.722;9.362;2022-10-31T17:16:37;10.00;99.90
46590;DHT22;32313;48.722;9.362;2022-10-31T17:19:03;9.90;99.90
46590;DHT22;32313;48.722;9.362;2022-10-31T17:21:29;9.90;99.90
46590;DHT22;32313;48.722;9.362;2022-10-31T17:23:55;9.80;99.90
46590;DHT22;32313;48.722;9.362;2022-10-31T17:26:21;9.70;99.90
46590;DHT22;32313;48.722;9.362;2022-10-31T17:28:47;9.70;99.90
46590;DHT22;32313;48.722;9.362;2022-10-31T17:31:21;9.60;99.90
46590;DHT22;32313;48.722;9.362;2022-10-31T17:33:47;9.50;99.90
46590;DHT22;32313;48.722;9.362;2022-10-31T17:36:12;9.40;99.90
46590;DHT22;32313;48.722;9.362;2022-10-31T17:38:38;9.40;99.90
46590;DHT22;32313;48.722;9.362;2022-10-31T17:41:05;9.30;99.90
46590;DHT22;32313;48.722;9.362;2022-10-31T17:43:30;9.30;99.90
46590;DHT22;32313;48.722;9.362;2022-10-31T17:45:58;9.20;99.90
46590;DHT22;32313;48.722;9.362;2022-10-31T17:48:24;9.20;99.90
46590;DHT22;32313;48.722;9.362;2022-10-31T17:50:50;9.10;99.90
46590;DHT22;32313;48.722;9.362;2022-10-31T17:53:16;9.10;99.90
46590;DHT22;32313;48.722;9.362;2022-10-31T17:55:42;9.10;99.90
46590;DHT22;32313;48.722;9.362;2022-10-31T17:58:08;9.00;99.90
46590;DHT22;32313;48.722;9.362;2022-10-31T18:00:38;9.00;99.90
46590;DHT22;32313;48.722;9.362;2022-10-31T18:03:06;8.90;99.90
46590;DHT22;32313;48.722;9.362;2022-10-31T18:05:32;8.90;99.90
46590;DHT22;32313;48.722;9.362;2022-10-31T18:07:57;8.90;99.90
46590;DHT22;32313;48.722;9.362;2022-10-31T18:10:24;8.90;99.90
46590;DHT22;32313;48.722;9.362;2022-10-31T18:12:50;8.90;99.90
46590;DHT22;32313;48.722;9.362;2022-10-31T18:15:16;9.00;99.90
46590;DHT22;32313;48.722;9.362;2022-10-31T18:17:42;9.10;99.90
46590;DHT22;32313;48.722;9.362;2022-10-31T18:20:09;9.10;99.90
46590;DHT22;32313;48.722;9.362;2022-10-31T18:22:35;9.10;99.90
46590;DHT22;32313;48.722;9.362;2022-10-31T18:25:00;9.00;99.90
46590;DHT22;32313;48.722;9.362;2022-10-31T18:27:26;8.90;99.90
46590;DHT22;32313;48.722;9.362;2022-10-31T18:29:52;8.90;99.90
46590;DHT22;32313;48.722;9.362;2022-10-31T18:32:17;8.80;99.90
46590;DHT22;32313;48.722;9.362;2022-10-31T18:34:43;8.80;99.90
46590;DHT22;32313;48.722;9.362;2022-10-31T18:37:09;8.70;99.90
46590;DHT22;32313;48.722;9.362;2022-10-31T18:39:34;8.70;99.90